createdAt,value
2022-12-05T00:00:25.090Z,1007.85
2022-12-05T00:01:25.072Z,1007.86
2022-12-05T00:02:25.203Z,1007.88
2022-12-05T00:03:25.037Z,1007.83
2022-12-05T00:04:25.100Z,1007.88
2022-12-05T00:05:25.012Z,1007.83
2022-12-05T00:06:25.022Z,1007.84
2022-12-05T00:07:25.012Z,1007.86
2022-12-05T00:08:24.981Z,1007.85
2022-12-05T00:09:24.999Z,1007.87
2022-12-05T00:10:24.968Z,1007.84
2022-12-05T00:11:24.959Z,1007.89
2022-12-05T00:12:24.976Z,1007.83
2022-12-05T00:13:24.958Z,1007.83
2022-12-05T00:14:24.920Z,1007.81
2022-12-05T00:15:24.924Z,1007.89
2022-12-05T00:16:24.979Z,1007.86
2022-12-05T00:17:24.879Z,1007.86
2022-12-05T00:18:24.869Z,1007.88
2022-12-05T00:19:24.877Z,1007.87
2022-12-05T00:20:24.845Z,1007.92
2022-12-05T00:21:24.841Z,1007.93
2022-12-05T00:22:24.836Z,1007.90
2022-12-05T00:23:24.810Z,1007.89
2022-12-05T00:24:24.812Z,1007.89
2022-12-05T00:25:24.788Z,1007.91
2022-12-05T00:26:24.804Z,1007.95
2022-12-05T00:27:24.785Z,1007.90
2022-12-05T00:28:24.798Z,1007.92
2022-12-05T00:29:24.798Z,1007.94
2022-12-05T00:30:24.729Z,1007.92
2022-12-05T00:31:24.785Z,1007.95
2022-12-05T00:32:24.706Z,1007.95
2022-12-05T00:33:24.709Z,1007.95
2022-12-05T00:34:24.701Z,1007.90
2022-12-05T00:35:24.695Z,1007.92
2022-12-05T00:36:24.688Z,1007.98
2022-12-05T00:37:24.654Z,1007.98
2022-12-05T00:38:24.651Z,1007.98
2022-12-05T00:39:24.636Z,1007.99
2022-12-05T00:40:24.643Z,1008.02
2022-12-05T00:41:24.633Z,1008.03
2022-12-05T00:42:24.618Z,1007.99
2022-12-05T00:43:24.602Z,1007.99
2022-12-05T00:44:24.591Z,1007.98
2022-12-05T00:45:24.602Z,1008.00
2022-12-05T00:46:24.716Z,1007.99
2022-12-05T00:47:24.573Z,1008.00
2022-12-05T00:48:24.532Z,1008.02
2022-12-05T00:49:24.517Z,1007.98
2022-12-05T00:50:24.509Z,1007.96
2022-12-05T00:51:24.517Z,1008.06
2022-12-05T00:52:24.484Z,1008.04
2022-12-05T00:53:24.502Z,1008.04
2022-12-05T00:54:24.481Z,1008.07
2022-12-05T00:55:24.462Z,1008.05
2022-12-05T00:56:24.468Z,1008.06
2022-12-05T00:57:24.444Z,1008.06
2022-12-05T00:58:24.442Z,1008.11
2022-12-05T00:59:24.451Z,1008.06
2022-12-05T01:00:24.432Z,1008.09
2022-12-05T01:01:24.509Z,1008.05
2022-12-05T01:02:24.372Z,1008.12
2022-12-05T01:03:24.475Z,1008.11
2022-12-05T01:04:24.384Z,1008.10
2022-12-05T01:05:24.383Z,1008.13
2022-12-05T01:06:24.338Z,1008.10
2022-12-05T01:07:24.331Z,1008.09
2022-12-05T01:08:24.329Z,1008.09
2022-12-05T01:09:24.298Z,1008.11
2022-12-05T01:10:24.311Z,1008.14
2022-12-05T01:11:24.289Z,1008.12
2022-12-05T01:12:24.272Z,1008.12
2022-12-05T01:13:24.262Z,1008.12
2022-12-05T01:14:24.253Z,1008.14
2022-12-05T01:15:24.248Z,1008.16
2022-12-05T01:16:24.260Z,1008.18
2022-12-05T01:17:24.235Z,1008.13
2022-12-05T01:18:24.198Z,1008.16
2022-12-05T01:19:24.196Z,1008.18
2022-12-05T01:20:24.192Z,1008.21
2022-12-05T01:21:24.165Z,1008.20
2022-12-05T01:22:24.161Z,1008.22
2022-12-05T01:23:24.159Z,1008.23
2022-12-05T01:24:24.157Z,1008.22
2022-12-05T01:25:24.126Z,1008.27
2022-12-05T01:26:24.127Z,1008.26
2022-12-05T01:27:24.139Z,1008.27
2022-12-05T01:28:24.191Z,1008.26
2022-12-05T01:29:24.084Z,1008.26
2022-12-05T01:30:24.071Z,1008.25
2022-12-05T01:31:24.172Z,1008.31
2022-12-05T01:32:24.105Z,1008.31
2022-12-05T01:33:24.062Z,1008.34
2022-12-05T01:34:24.033Z,1008.35
2022-12-05T01:35:24.015Z,1008.37
2022-12-05T01:36:24.028Z,1008.35
2022-12-05T01:37:23.993Z,1008.41
2022-12-05T01:38:23.991Z,1008.38
2022-12-05T01:39:23.982Z,1008.36
2022-12-05T01:40:23.945Z,1008.39
2022-12-05T01:41:23.948Z,1008.45
2022-12-05T01:42:26.352Z,1008.49
2022-12-05T01:43:23.931Z,1008.46
2022-12-05T01:44:23.947Z,1008.47
2022-12-05T01:45:23.892Z,1008.48
2022-12-05T01:46:23.946Z,1008.50
2022-12-05T01:47:23.879Z,1008.49
2022-12-05T01:48:23.872Z,1008.49
2022-12-05T01:49:23.902Z,1008.49
2022-12-05T01:50:23.837Z,1008.52
2022-12-05T01:51:23.870Z,1008.51
2022-12-05T01:52:23.836Z,1008.47
2022-12-05T01:53:23.827Z,1008.51
2022-12-05T01:54:23.835Z,1008.49
2022-12-05T01:55:23.799Z,1008.53
2022-12-05T01:56:23.787Z,1008.50
2022-12-05T01:57:23.754Z,1008.55
2022-12-05T01:58:23.743Z,1008.53
2022-12-05T01:59:23.774Z,1008.53
2022-12-05T02:00:23.766Z,1008.47
2022-12-05T02:01:23.833Z,1008.49
2022-12-05T02:02:23.785Z,1008.44
2022-12-05T02:03:23.708Z,1008.45
2022-12-05T02:04:23.702Z,1008.48
2022-12-05T02:05:23.708Z,1008.47
2022-12-05T02:06:23.684Z,1008.49
2022-12-05T02:07:23.660Z,1008.47
2022-12-05T02:08:23.699Z,1008.48
2022-12-05T02:09:23.645Z,1008.48
2022-12-05T02:10:23.639Z,1008.50
2022-12-05T02:11:23.637Z,1008.50
2022-12-05T02:12:23.589Z,1008.48
2022-12-05T02:13:23.587Z,1008.48
2022-12-05T02:14:23.583Z,1008.48
2022-12-05T02:15:23.606Z,1008.52
2022-12-05T02:16:23.601Z,1008.52
2022-12-05T02:17:23.547Z,1008.53
2022-12-05T02:18:23.613Z,1008.53
2022-12-05T02:19:23.531Z,1008.47
2022-12-05T02:20:23.508Z,1008.50
2022-12-05T02:21:23.531Z,1008.53
2022-12-05T02:22:23.476Z,1008.51
2022-12-05T02:23:23.480Z,1008.51
2022-12-05T02:24:23.454Z,1008.52
2022-12-05T02:25:23.460Z,1008.50
2022-12-05T02:26:23.447Z,1008.49
2022-12-05T02:27:23.425Z,1008.46
2022-12-05T02:28:23.427Z,1008.48
2022-12-05T02:29:23.417Z,1008.45
2022-12-05T02:30:23.404Z,1008.43
2022-12-05T02:31:23.510Z,1008.43
2022-12-05T02:32:23.365Z,1008.48
2022-12-05T02:33:23.368Z,1008.45
2022-12-05T02:34:23.360Z,1008.49
2022-12-05T02:35:23.343Z,1008.47
2022-12-05T02:36:23.329Z,1008.47
2022-12-05T02:37:23.342Z,1008.46
2022-12-05T02:38:23.300Z,1008.51
2022-12-05T02:39:23.295Z,1008.46
2022-12-05T02:40:23.296Z,1008.46
2022-12-05T02:41:23.282Z,1008.45
2022-12-05T02:42:23.272Z,1008.41
2022-12-05T02:43:23.278Z,1008.43
2022-12-05T02:44:23.247Z,1008.45
2022-12-05T02:45:23.236Z,1008.43
2022-12-05T02:46:23.304Z,1008.41
2022-12-05T02:47:23.276Z,1008.38
2022-12-05T02:48:23.187Z,1008.40
2022-12-05T02:49:23.187Z,1008.43
2022-12-05T02:50:23.167Z,1008.39
2022-12-05T02:51:23.154Z,1008.43
2022-12-05T02:52:23.164Z,1008.42
2022-12-05T02:53:23.153Z,1008.41
2022-12-05T02:54:23.134Z,1008.48
2022-12-05T02:55:23.108Z,1008.48
2022-12-05T02:56:23.094Z,1008.46
2022-12-05T02:57:23.118Z,1008.41
2022-12-05T02:58:23.090Z,1008.42
2022-12-05T02:59:23.832Z,1008.44
2022-12-05T03:00:23.071Z,1008.42
2022-12-05T03:01:23.115Z,1008.43
2022-12-05T03:02:23.049Z,1008.39
2022-12-05T03:03:23.021Z,1008.40
2022-12-05T03:04:23.093Z,1008.37
2022-12-05T03:05:23.017Z,1008.40
2022-12-05T03:06:22.996Z,1008.40
2022-12-05T03:07:22.994Z,1008.37
2022-12-05T03:08:22.986Z,1008.37
2022-12-05T03:09:22.976Z,1008.43
2022-12-05T03:10:22.979Z,1008.40
2022-12-05T03:11:22.930Z,1008.37
2022-12-05T03:12:22.948Z,1008.36
2022-12-05T03:13:22.913Z,1008.37
2022-12-05T03:14:22.910Z,1008.40
2022-12-05T03:15:22.891Z,1008.38
2022-12-05T03:16:22.908Z,1008.38
2022-12-05T03:17:22.871Z,1008.41
2022-12-05T03:18:22.872Z,1008.40
2022-12-05T03:19:22.853Z,1008.37
2022-12-05T03:20:22.860Z,1008.45
2022-12-05T03:21:22.820Z,1008.40
2022-12-05T03:22:22.817Z,1008.45
2022-12-05T03:23:22.814Z,1008.52
2022-12-05T03:24:22.794Z,1008.48
2022-12-05T03:25:22.817Z,1008.52
2022-12-05T03:26:22.775Z,1008.53
2022-12-05T03:27:22.748Z,1008.55
2022-12-05T03:28:22.777Z,1008.56
2022-12-05T03:29:22.765Z,1008.53
2022-12-05T03:30:22.721Z,1008.57
2022-12-05T03:31:22.795Z,1008.56
2022-12-05T03:32:22.687Z,1008.61
2022-12-05T03:33:22.695Z,1008.53
2022-12-05T03:34:22.681Z,1008.61
2022-12-05T03:35:22.658Z,1008.67
2022-12-05T03:36:22.657Z,1008.62
2022-12-05T03:37:22.652Z,1008.67
2022-12-05T03:38:22.658Z,1008.67
2022-12-05T03:39:22.622Z,1008.69
2022-12-05T03:40:22.607Z,1008.68
2022-12-05T03:41:22.615Z,1008.69
2022-12-05T03:42:22.597Z,1008.72
2022-12-05T03:43:22.587Z,1008.69
2022-12-05T03:44:22.566Z,1008.70
2022-12-05T03:45:22.547Z,1008.68
2022-12-05T03:46:22.653Z,1008.70
2022-12-05T03:47:22.526Z,1008.69
2022-12-05T03:48:22.531Z,1008.70
2022-12-05T03:49:22.515Z,1008.74
2022-12-05T03:50:22.511Z,1008.73
2022-12-05T03:51:22.480Z,1008.69
2022-12-05T03:52:22.479Z,1008.67
2022-12-05T03:53:22.494Z,1008.72
2022-12-05T03:54:22.466Z,1008.73
2022-12-05T03:55:22.450Z,1008.71
2022-12-05T03:56:22.433Z,1008.70
2022-12-05T03:57:22.452Z,1008.69
2022-12-05T03:58:22.413Z,1008.70
2022-12-05T03:59:22.431Z,1008.68
2022-12-05T04:00:22.405Z,1008.72
2022-12-05T04:01:22.502Z,1008.73
2022-12-05T04:02:22.360Z,1008.73
2022-12-05T04:03:22.429Z,1008.73
2022-12-05T04:04:22.333Z,1008.74
2022-12-05T04:05:22.327Z,1008.73
2022-12-05T04:06:22.324Z,1008.72
2022-12-05T04:07:22.333Z,1008.73
2022-12-05T04:08:22.355Z,1008.76
2022-12-05T04:09:22.295Z,1008.76
2022-12-05T04:10:22.307Z,1008.76
2022-12-05T04:11:22.287Z,1008.80
2022-12-05T04:12:22.251Z,1008.79
2022-12-05T04:13:22.272Z,1008.81
2022-12-05T04:14:22.246Z,1008.83
2022-12-05T04:15:22.222Z,1008.83
2022-12-05T04:16:22.337Z,1008.86
2022-12-05T04:17:22.189Z,1008.87
2022-12-05T04:18:22.179Z,1008.84
2022-12-05T04:19:22.176Z,1008.85
2022-12-05T04:20:22.184Z,1008.88
2022-12-05T04:21:22.176Z,1008.83
2022-12-05T04:22:22.139Z,1008.86
2022-12-05T04:23:22.122Z,1008.87
2022-12-05T04:24:22.124Z,1008.85
2022-12-05T04:25:22.103Z,1008.83
2022-12-05T04:26:22.091Z,1008.85
2022-12-05T04:27:22.100Z,1008.80
2022-12-05T04:28:22.270Z,1008.83
2022-12-05T04:29:22.094Z,1008.84
2022-12-05T04:30:22.052Z,1008.87
2022-12-05T04:31:22.099Z,1008.86
2022-12-05T04:32:22.048Z,1008.87
2022-12-05T04:33:22.010Z,1008.86
2022-12-05T04:34:22.012Z,1008.90
2022-12-05T04:35:22.011Z,1008.88
2022-12-05T04:36:21.970Z,1008.91
2022-12-05T04:37:21.972Z,1008.91
2022-12-05T04:38:21.956Z,1008.94
2022-12-05T04:39:21.989Z,1008.98
2022-12-05T04:40:21.930Z,1009.03
2022-12-05T04:41:21.916Z,1009.02
2022-12-05T04:42:21.931Z,1009.03
2022-12-05T04:43:21.921Z,1009.00
2022-12-05T04:44:21.919Z,1009.05
2022-12-05T04:45:21.919Z,1009.05
2022-12-05T04:46:21.912Z,1009.02
2022-12-05T04:47:21.851Z,1009.02
2022-12-05T04:48:21.851Z,1009.02
2022-12-05T04:49:21.848Z,1009.05
2022-12-05T04:50:21.819Z,1008.99
2022-12-05T04:51:21.836Z,1009.05
2022-12-05T04:52:21.788Z,1009.03
2022-12-05T04:53:21.797Z,1009.04
2022-12-05T04:54:21.797Z,1009.04
2022-12-05T04:55:21.775Z,1008.99
2022-12-05T04:56:21.763Z,1008.99
2022-12-05T04:57:21.779Z,1009.03
2022-12-05T04:58:21.735Z,1009.03
2022-12-05T04:59:21.747Z,1009.04
2022-12-05T05:00:21.716Z,1009.06
2022-12-05T05:01:21.802Z,1009.03
2022-12-05T05:02:21.745Z,1009.07
2022-12-05T05:03:21.755Z,1009.03
2022-12-05T05:04:21.660Z,1009.02
2022-12-05T05:05:21.643Z,1009.01
2022-12-05T05:06:21.652Z,1008.97
2022-12-05T05:07:21.642Z,1008.96
2022-12-05T05:08:21.769Z,1008.98
2022-12-05T05:09:21.630Z,1008.98
2022-12-05T05:10:21.606Z,1008.96
2022-12-05T05:11:21.600Z,1008.95
2022-12-05T05:12:21.589Z,1008.94
2022-12-05T05:13:21.555Z,1008.95
2022-12-05T05:14:21.646Z,1008.95
2022-12-05T05:15:21.546Z,1008.98
2022-12-05T05:16:21.633Z,1008.95
2022-12-05T05:17:21.540Z,1008.97
2022-12-05T05:18:21.514Z,1008.97
2022-12-05T05:19:21.504Z,1008.99
2022-12-05T05:20:21.523Z,1008.99
2022-12-05T05:21:21.482Z,1009.01
2022-12-05T05:22:21.467Z,1008.98
2022-12-05T05:23:21.470Z,1009.02
2022-12-05T05:24:21.448Z,1009.03
2022-12-05T05:25:21.432Z,1009.04
2022-12-05T05:26:21.456Z,1009.06
2022-12-05T05:27:21.409Z,1009.06
2022-12-05T05:28:21.395Z,1009.02
2022-12-05T05:29:21.379Z,1009.11
2022-12-05T05:30:21.364Z,1009.09
2022-12-05T05:31:21.555Z,1009.10
2022-12-05T05:32:21.365Z,1009.11
2022-12-05T05:33:21.374Z,1009.10
2022-12-05T05:34:21.347Z,1009.11
2022-12-05T05:35:21.332Z,1009.10
2022-12-05T05:36:21.309Z,1009.12
2022-12-05T05:37:21.287Z,1009.12
2022-12-05T05:38:21.289Z,1009.12
2022-12-05T05:39:21.265Z,1009.11
2022-12-05T05:40:21.275Z,1009.14
2022-12-05T05:41:21.249Z,1009.15
2022-12-05T05:42:21.245Z,1009.19
2022-12-05T05:43:21.219Z,1009.15
2022-12-05T05:44:21.228Z,1009.17
2022-12-05T05:45:21.218Z,1009.19
2022-12-05T05:46:21.231Z,1009.23
2022-12-05T05:47:21.208Z,1009.24
2022-12-05T05:48:21.184Z,1009.25
2022-12-05T05:49:21.194Z,1009.28
2022-12-05T05:50:22.115Z,1009.31
2022-12-05T05:51:21.131Z,1009.31
2022-12-05T05:52:21.130Z,1009.27
2022-12-05T05:53:21.118Z,1009.28
2022-12-05T05:54:21.123Z,1009.30
2022-12-05T05:55:21.117Z,1009.28
2022-12-05T05:56:21.976Z,1009.29
2022-12-05T05:57:21.063Z,1009.23
2022-12-05T05:58:21.062Z,1009.23
2022-12-05T05:59:21.060Z,1009.24
2022-12-05T06:00:21.052Z,1009.21
2022-12-05T06:01:21.044Z,1009.26
2022-12-05T06:02:21.100Z,1009.22
2022-12-05T06:03:21.171Z,1009.26
2022-12-05T06:04:21.110Z,1009.23
2022-12-05T06:05:21.011Z,1009.26
2022-12-05T06:06:21.001Z,1009.23
2022-12-05T06:07:20.972Z,1009.27
2022-12-05T06:08:21.085Z,1009.25
2022-12-05T06:09:21.009Z,1009.29
2022-12-05T06:10:20.946Z,1009.28
2022-12-05T06:11:25.959Z,1009.32
2022-12-05T06:12:21.912Z,1009.30
2022-12-05T06:13:20.921Z,1009.32
2022-12-05T06:14:20.891Z,1009.35
2022-12-05T06:15:20.962Z,1009.32
2022-12-05T06:16:20.894Z,1009.32
2022-12-05T06:17:20.856Z,1009.31
2022-12-05T06:18:20.877Z,1009.35
2022-12-05T06:19:20.828Z,1009.32
2022-12-05T06:20:20.812Z,1009.34
2022-12-05T06:21:20.841Z,1009.33
2022-12-05T06:22:20.797Z,1009.34
2022-12-05T06:23:20.806Z,1009.33
2022-12-05T06:24:20.779Z,1009.34
2022-12-05T06:25:20.781Z,1009.36
2022-12-05T06:26:20.791Z,1009.36
2022-12-05T06:27:20.739Z,1009.36
2022-12-05T06:28:20.752Z,1009.31
2022-12-05T06:29:25.309Z,1009.37
2022-12-05T06:30:21.737Z,1009.37
2022-12-05T06:31:20.785Z,1009.33
2022-12-05T06:32:20.719Z,1009.36
2022-12-05T06:33:20.685Z,1009.33
2022-12-05T06:34:20.677Z,1009.36
2022-12-05T06:35:20.645Z,1009.36
2022-12-05T06:36:20.645Z,1009.32
2022-12-05T06:37:20.639Z,1009.34
2022-12-05T06:38:20.641Z,1009.33
2022-12-05T06:39:20.624Z,1009.33
2022-12-05T06:40:20.582Z,1009.39
2022-12-05T06:41:20.592Z,1009.37
2022-12-05T06:42:20.601Z,1009.38
2022-12-05T06:43:20.559Z,1009.41
2022-12-05T06:44:20.559Z,1009.45
2022-12-05T06:45:20.529Z,1009.45
2022-12-05T06:46:20.604Z,1009.44
2022-12-05T06:47:20.545Z,1009.50
2022-12-05T06:48:20.510Z,1009.50
2022-12-05T06:49:21.768Z,1009.51
2022-12-05T06:50:20.472Z,1009.53
2022-12-05T06:51:20.459Z,1009.48
2022-12-05T06:52:20.470Z,1009.46
2022-12-05T06:53:20.488Z,1009.46
2022-12-05T06:54:20.462Z,1009.44
2022-12-05T06:55:20.421Z,1009.47
2022-12-05T06:56:20.448Z,1009.44
2022-12-05T06:57:20.418Z,1009.46
2022-12-05T06:58:20.410Z,1009.52
2022-12-05T06:59:20.395Z,1009.52
2022-12-05T07:00:20.433Z,1009.54
2022-12-05T07:01:20.440Z,1009.54
2022-12-05T07:02:20.463Z,1009.55
2022-12-05T07:03:20.496Z,1009.54
2022-12-05T07:04:20.348Z,1009.59
2022-12-05T07:05:20.315Z,1009.59
2022-12-05T07:06:20.316Z,1009.59
2022-12-05T07:07:20.297Z,1009.62
2022-12-05T07:08:20.387Z,1009.62
2022-12-05T07:09:20.305Z,1009.65
2022-12-05T07:10:20.248Z,1009.66
2022-12-05T07:11:20.249Z,1009.70
2022-12-05T07:12:20.243Z,1009.67
2022-12-05T07:13:20.235Z,1009.72
2022-12-05T07:14:48.977Z,1009.74
2022-12-05T07:15:21.210Z,1009.71
2022-12-05T07:16:20.280Z,1009.76
2022-12-05T07:17:20.207Z,1009.78
2022-12-05T07:18:20.157Z,1009.79
2022-12-05T07:19:20.172Z,1009.81
2022-12-05T07:20:20.131Z,1009.82
2022-12-05T07:21:20.129Z,1009.82
2022-12-05T07:22:20.123Z,1009.79
2022-12-05T07:23:20.142Z,1009.78
2022-12-05T07:24:20.106Z,1009.82
2022-12-05T07:25:20.152Z,1009.83
2022-12-05T07:26:20.083Z,1009.87
2022-12-05T07:27:26.965Z,1009.84
2022-12-05T07:28:21.756Z,1009.86
2022-12-05T07:29:20.045Z,1009.87
2022-12-05T07:30:20.048Z,1009.90
2022-12-05T07:31:20.121Z,1009.87
2022-12-05T07:32:20.051Z,1009.93
2022-12-05T07:33:20.003Z,1009.92
2022-12-05T07:34:19.974Z,1009.92
2022-12-05T07:35:19.981Z,1009.98
2022-12-05T07:36:19.978Z,1009.98
2022-12-05T07:37:20.044Z,1010.00
2022-12-05T07:38:19.947Z,1009.99
2022-12-05T07:39:19.933Z,1009.99
2022-12-05T07:40:19.919Z,1009.97
2022-12-05T07:41:19.942Z,1010.00
2022-12-05T07:42:19.983Z,1010.00
2022-12-05T07:43:19.885Z,1009.94
2022-12-05T07:44:20.743Z,1009.96
2022-12-05T07:45:19.887Z,1009.93
2022-12-05T07:46:19.926Z,1009.89
2022-12-05T07:47:19.946Z,1009.93
2022-12-05T07:48:19.914Z,1009.88
2022-12-05T07:49:19.835Z,1009.90
2022-12-05T07:50:19.823Z,1009.91
2022-12-05T07:51:19.826Z,1009.98
2022-12-05T07:52:19.787Z,1009.99
2022-12-05T07:53:19.806Z,1010.00
2022-12-05T07:54:19.785Z,1010.02
2022-12-05T07:55:19.755Z,1009.96
2022-12-05T07:56:19.741Z,1009.94
2022-12-05T07:57:19.765Z,1009.94
2022-12-05T07:58:19.723Z,1009.93
2022-12-05T07:59:19.754Z,1009.98
2022-12-05T08:00:19.690Z,1010.00
2022-12-05T08:01:19.788Z,1009.97
2022-12-05T08:02:19.712Z,1009.99
2022-12-05T08:03:19.663Z,1009.98
2022-12-05T08:04:19.723Z,1010.00
2022-12-05T08:05:19.659Z,1009.98
2022-12-05T08:06:19.626Z,1010.01
2022-12-05T08:07:19.622Z,1009.99
2022-12-05T08:08:19.699Z,1010.05
2022-12-05T08:09:19.661Z,1010.00
2022-12-05T08:10:19.619Z,1010.02
2022-12-05T08:11:19.589Z,1009.99
2022-12-05T08:12:19.731Z,1010.06
2022-12-05T08:13:19.561Z,1010.05
2022-12-05T08:14:19.547Z,1010.08
2022-12-05T08:15:19.515Z,1010.07
2022-12-05T08:16:19.672Z,1010.07
2022-12-05T08:17:19.508Z,1009.99
2022-12-05T08:18:24.395Z,1010.01
2022-12-05T08:19:20.482Z,1009.99
2022-12-05T08:20:19.464Z,1010.00
2022-12-05T08:21:19.477Z,1010.02
2022-12-05T08:22:19.465Z,1010.03
2022-12-05T08:23:19.452Z,1010.01
2022-12-05T08:24:19.447Z,1010.03
2022-12-05T08:25:19.412Z,1010.03
2022-12-05T08:26:19.399Z,1010.12
2022-12-05T08:27:19.428Z,1010.10
2022-12-05T08:28:19.414Z,1010.09
2022-12-05T08:29:19.392Z,1010.17
2022-12-05T08:30:19.376Z,1010.23
2022-12-05T08:31:19.484Z,1010.19
2022-12-05T08:32:19.385Z,1010.21
2022-12-05T08:33:19.337Z,1010.20
2022-12-05T08:34:19.327Z,1010.24
2022-12-05T08:35:19.304Z,1010.23
2022-12-05T08:36:19.336Z,1010.30
2022-12-05T08:37:19.301Z,1010.27
2022-12-05T08:38:19.289Z,1010.29
2022-12-05T08:39:19.285Z,1010.33
2022-12-05T08:40:19.284Z,1010.32
2022-12-05T08:41:19.235Z,1010.36
2022-12-05T08:42:19.233Z,1010.39
2022-12-05T08:43:19.244Z,1010.38
2022-12-05T08:44:19.228Z,1010.38
2022-12-05T08:45:19.211Z,1010.38
2022-12-05T08:46:19.284Z,1010.38
2022-12-05T08:47:19.164Z,1010.31
2022-12-05T08:48:19.164Z,1010.35
2022-12-05T08:49:19.181Z,1010.35
2022-12-05T08:50:19.141Z,1010.36
2022-12-05T08:51:19.141Z,1010.39
2022-12-05T08:52:19.124Z,1010.37
2022-12-05T08:53:19.139Z,1010.41
2022-12-05T08:54:19.178Z,1010.42
2022-12-05T08:55:19.167Z,1010.42
2022-12-05T08:56:25.102Z,1010.40
2022-12-05T08:57:20.067Z,1010.40
2022-12-05T08:58:19.071Z,1010.41
2022-12-05T08:59:19.044Z,1010.43
2022-12-05T09:00:19.041Z,1010.45
2022-12-05T09:01:19.277Z,1010.45
2022-12-05T09:02:19.061Z,1010.45
2022-12-05T09:03:19.008Z,1010.49
2022-12-05T09:04:18.972Z,1010.46
2022-12-05T09:05:28.502Z,1010.52
2022-12-05T09:06:19.983Z,1010.50
2022-12-05T09:07:19.282Z,1010.48
2022-12-05T09:08:18.999Z,1010.45
2022-12-05T09:09:18.924Z,1010.50
2022-12-05T09:10:18.919Z,1010.50
2022-12-05T09:11:18.892Z,1010.48
2022-12-05T09:12:18.918Z,1010.51
2022-12-05T09:13:18.883Z,1010.48
2022-12-05T09:14:18.902Z,1010.51
2022-12-05T09:15:18.860Z,1010.54
2022-12-05T09:16:18.971Z,1010.54
2022-12-05T09:17:18.866Z,1010.55
2022-12-05T09:18:18.833Z,1010.59
2022-12-05T09:19:18.899Z,1010.57
2022-12-05T09:20:18.805Z,1010.55
2022-12-05T09:21:18.815Z,1010.56
2022-12-05T09:22:19.658Z,1010.59
2022-12-05T09:23:18.771Z,1010.57
2022-12-05T09:24:18.790Z,1010.61
2022-12-05T09:25:18.742Z,1010.57
2022-12-05T09:26:18.749Z,1010.58
2022-12-05T09:27:18.726Z,1010.58
2022-12-05T09:28:18.708Z,1010.61
2022-12-05T09:29:18.717Z,1010.61
2022-12-05T09:30:18.804Z,1010.64
2022-12-05T09:31:18.747Z,1010.66
2022-12-05T09:32:18.672Z,1010.64
2022-12-05T09:33:18.683Z,1010.67
2022-12-05T09:34:18.944Z,1010.64
2022-12-05T09:35:18.660Z,1010.67
2022-12-05T09:36:18.653Z,1010.72
2022-12-05T09:37:38.254Z,1010.70
2022-12-05T09:38:19.603Z,1010.73
2022-12-05T09:39:18.600Z,1010.71
2022-12-05T09:40:18.617Z,1010.77
2022-12-05T09:41:18.567Z,1010.76
2022-12-05T09:42:19.802Z,1010.75
2022-12-05T09:43:18.570Z,1010.76
2022-12-05T09:44:18.537Z,1010.74
2022-12-05T09:45:18.536Z,1010.81
2022-12-05T09:46:18.616Z,1010.78
2022-12-05T09:47:18.523Z,1010.80
2022-12-05T09:48:25.248Z,1010.82
2022-12-05T09:49:18.472Z,1010.80
2022-12-05T09:50:18.495Z,1010.79
2022-12-05T09:51:18.468Z,1010.79
2022-12-05T09:52:18.913Z,1010.80
2022-12-05T09:53:18.449Z,1010.79
2022-12-05T09:54:18.427Z,1010.80
2022-12-05T09:55:18.436Z,1010.86
2022-12-05T09:56:18.422Z,1010.81
2022-12-05T09:57:18.376Z,1010.79
2022-12-05T09:58:18.387Z,1010.80
2022-12-05T09:59:18.373Z,1010.86
2022-12-05T10:00:18.365Z,1010.82
2022-12-05T10:01:18.442Z,1010.82
2022-12-05T10:02:18.360Z,1010.82
2022-12-05T10:03:18.334Z,1010.82
2022-12-05T10:04:18.485Z,1010.83
2022-12-05T10:05:18.334Z,1010.83
2022-12-05T10:06:18.295Z,1010.82
2022-12-05T10:07:18.295Z,1010.84
2022-12-05T10:08:18.423Z,1010.86
2022-12-05T10:09:18.341Z,1010.80
2022-12-05T10:10:20.363Z,1010.88
2022-12-05T10:11:18.228Z,1010.83
2022-12-05T10:12:18.342Z,1010.83
2022-12-05T10:13:18.206Z,1010.80
2022-12-05T10:14:18.238Z,1010.79
2022-12-05T10:15:18.203Z,1010.78
2022-12-05T10:16:18.215Z,1010.80
2022-12-05T10:17:18.177Z,1010.79
2022-12-05T10:18:18.154Z,1010.79
2022-12-05T10:19:18.183Z,1010.77
2022-12-05T10:20:18.317Z,1010.77
2022-12-05T10:21:18.154Z,1010.74
2022-12-05T10:22:20.747Z,1010.78
2022-12-05T10:23:34.550Z,1010.77
2022-12-05T10:24:19.105Z,1010.73
2022-12-05T10:25:18.066Z,1010.78
2022-12-05T10:26:18.197Z,1010.79
2022-12-05T10:27:18.054Z,1010.77
2022-12-05T10:28:18.095Z,1010.76
2022-12-05T10:29:18.049Z,1010.76
2022-12-05T10:30:18.097Z,1010.77
2022-12-05T10:31:18.101Z,1010.80
2022-12-05T10:32:17.987Z,1010.77
2022-12-05T10:33:17.983Z,1010.74
2022-12-05T10:34:18.000Z,1010.72
2022-12-05T10:35:17.970Z,1010.69
2022-12-05T10:36:17.984Z,1010.69
2022-12-05T10:37:17.966Z,1010.67
2022-12-05T10:38:17.930Z,1010.65
2022-12-05T10:39:17.940Z,1010.67
2022-12-05T10:40:17.950Z,1010.67
2022-12-05T10:41:17.898Z,1010.66
2022-12-05T10:42:17.942Z,1010.73
2022-12-05T10:43:17.867Z,1010.73
2022-12-05T10:44:17.877Z,1010.73
2022-12-05T10:45:17.877Z,1010.70
2022-12-05T10:46:17.989Z,1010.72
2022-12-05T10:47:17.953Z,1010.78
2022-12-05T10:48:17.828Z,1010.75
2022-12-05T10:49:17.805Z,1010.76
2022-12-05T10:50:17.810Z,1010.82
2022-12-05T10:51:17.785Z,1010.82
2022-12-05T10:52:17.786Z,1010.79
2022-12-05T10:53:17.772Z,1010.76
2022-12-05T10:54:17.768Z,1010.71
2022-12-05T10:55:17.759Z,1010.76
2022-12-05T10:56:33.015Z,1010.79
2022-12-05T10:57:18.717Z,1010.82
2022-12-05T10:58:18.063Z,1010.81
2022-12-05T10:59:17.691Z,1010.75
2022-12-05T11:00:17.684Z,1010.76
2022-12-05T11:01:17.877Z,1010.78
2022-12-05T11:02:17.763Z,1010.77
2022-12-05T11:03:17.693Z,1010.80
2022-12-05T11:04:17.671Z,1010.78
2022-12-05T11:05:17.667Z,1010.84
2022-12-05T11:06:17.612Z,1010.80
2022-12-05T11:07:17.615Z,1010.80
2022-12-05T11:08:17.649Z,1010.82
2022-12-05T11:09:17.595Z,1010.77
2022-12-05T11:10:21.066Z,1010.78
2022-12-05T11:11:18.564Z,1010.77
2022-12-05T11:12:17.744Z,1010.73
2022-12-05T11:13:17.571Z,1010.80
2022-12-05T11:14:17.637Z,1010.76
2022-12-05T11:15:17.517Z,1010.76
2022-12-05T11:16:17.590Z,1010.79
2022-12-05T11:17:17.506Z,1010.76
2022-12-05T11:18:17.485Z,1010.76
2022-12-05T11:19:17.580Z,1010.74
2022-12-05T11:20:17.460Z,1010.80
2022-12-05T11:21:17.436Z,1010.80
2022-12-05T11:22:17.478Z,1010.75
2022-12-05T11:23:17.444Z,1010.76
2022-12-05T11:24:17.438Z,1010.73
2022-12-05T11:25:17.476Z,1010.79
2022-12-05T11:26:17.394Z,1010.77
2022-12-05T11:27:18.299Z,1010.76
2022-12-05T11:28:17.478Z,1010.70
2022-12-05T11:29:17.457Z,1010.74
2022-12-05T11:30:17.405Z,1010.72
2022-12-05T11:31:17.451Z,1010.76
2022-12-05T11:32:17.357Z,1010.70
2022-12-05T11:33:17.334Z,1010.74
2022-12-05T11:34:17.326Z,1010.70
2022-12-05T11:35:17.375Z,1010.70
2022-12-05T11:36:17.301Z,1010.69
2022-12-05T11:37:17.268Z,1010.71
2022-12-05T11:38:17.294Z,1010.69
2022-12-05T11:39:17.262Z,1010.74
2022-12-05T11:40:17.252Z,1010.75
2022-12-05T11:41:17.241Z,1010.73
2022-12-05T11:42:17.242Z,1010.76
2022-12-05T11:43:17.205Z,1010.73
2022-12-05T11:44:17.341Z,1010.79
2022-12-05T11:45:17.178Z,1010.73
2022-12-05T11:46:19.202Z,1010.73
2022-12-05T11:47:17.285Z,1010.75
2022-12-05T11:48:17.145Z,1010.68
2022-12-05T11:49:17.211Z,1010.69
2022-12-05T11:50:17.127Z,1010.67
2022-12-05T11:51:17.147Z,1010.66
2022-12-05T11:52:17.130Z,1010.66
2022-12-05T11:53:17.083Z,1010.60
2022-12-05T11:54:30.401Z,1010.65
2022-12-05T11:55:19.131Z,1010.62
2022-12-05T11:56:17.061Z,1010.55
2022-12-05T11:57:17.067Z,1010.59
2022-12-05T11:58:17.077Z,1010.55
2022-12-05T11:59:17.010Z,1010.56
2022-12-05T12:00:17.007Z,1010.54
2022-12-05T12:01:17.003Z,1010.53
2022-12-05T12:02:17.054Z,1010.48
2022-12-05T12:03:17.086Z,1010.48
2022-12-05T12:04:16.992Z,1010.45
2022-12-05T12:05:16.951Z,1010.43